sensor_id;sensor_type;location;lat;lon;timestamp;P1;durP1;ratioP1;P2;durP2;ratioP2
9370;SDS011;4725;48.384;8.984;2022-07-22T00:02:09;5.53;;;4.78;;
9370;SDS011;4725;48.384;8.984;2022-07-22T00:04:36;5.00;;;4.60;;
9370;SDS011;4725;48.384;8.984;2022-07-22T00:07:03;5.35;;;4.45;;
9370;SDS011;4725;48.384;8.984;2022-07-22T00:09:30;6.13;;;4.60;;
9370;SDS011;4725;48.384;8.984;2022-07-22T00:11:59;5.55;;;4.65;;
9370;SDS011;4725;48.384;8.984;2022-07-22T00:14:26;5.20;;;4.55;;
9370;SDS011;4725;48.384;8.984;2022-07-22T00:16:52;6.13;;;4.95;;
9370;SDS011;4725;48.384;8.984;2022-07-22T00:19:19;5.32;;;4.65;;
9370;SDS011;4725;48.384;8.984;2022-07-22T00:21:47;5.80;;;4.65;;
9370;SDS011;4725;48.384;8.984;2022-07-22T00:24:14;6.97;;;4.60;;
9370;SDS011;4725;48.384;8.984;2022-07-22T00:26:41;4.88;;;4.43;;
9370;SDS011;4725;48.384;8.984;2022-07-22T00:29:09;5.47;;;4.97;;
9370;SDS011;4725;48.384;8.984;2022-07-22T00:31:36;5.80;;;4.68;;
9370;SDS011;4725;48.384;8.984;2022-07-22T00:34:03;6.68;;;4.75;;
9370;SDS011;4725;48.384;8.984;2022-07-22T00:36:30;5.97;;;4.95;;
9370;SDS011;4725;48.384;8.984;2022-07-22T00:38:57;6.30;;;5.15;;
9370;SDS011;4725;48.384;8.984;2022-07-22T00:41:25;5.03;;;4.63;;
9370;SDS011;4725;48.384;8.984;2022-07-22T00:43:52;6.10;;;4.97;;
9370;SDS011;4725;48.384;8.984;2022-07-22T00:46:22;5.20;;;4.70;;
9370;SDS011;4725;48.384;8.984;2022-07-22T00:48:49;6.05;;;4.53;;
9370;SDS011;4725;48.384;8.984;2022-07-22T00:51:16;4.53;;;4.07;;
9370;SDS011;4725;48.384;8.984;2022-07-22T00:53:43;6.50;;;4.47;;
9370;SDS011;4725;48.384;8.984;2022-07-22T00:56:11;4.63;;;4.23;;
9370;SDS011;4725;48.384;8.984;2022-07-22T00:58:38;5.32;;;4.82;;
9370;SDS011;4725;48.384;8.984;2022-07-22T01:01:05;7.70;;;4.82;;
9370;SDS011;4725;48.384;8.984;2022-07-22T01:03:33;5.75;;;4.72;;
9370;SDS011;4725;48.384;8.984;2022-07-22T01:06:00;7.45;;;4.63;;
9370;SDS011;4725;48.384;8.984;2022-07-22T01:08:27;13.55;;;5.22;;
9370;SDS011;4725;48.384;8.984;2022-07-22T01:10:54;6.88;;;5.15;;
9370;SDS011;4725;48.384;8.984;2022-07-22T01:13:32;13.32;;;5.05;;
9370;SDS011;4725;48.384;8.984;2022-07-22T01:15:59;10.10;;;5.37;;
9370;SDS011;4725;48.384;8.984;2022-07-22T01:18:26;7.77;;;5.33;;
9370;SDS011;4725;48.384;8.984;2022-07-22T01:20:55;9.97;;;5.13;;
9370;SDS011;4725;48.384;8.984;2022-07-22T01:23:22;11.17;;;5.30;;
9370;SDS011;4725;48.384;8.984;2022-07-22T01:25:49;6.23;;;4.87;;
9370;SDS011;4725;48.384;8.984;2022-07-22T01:28:16;8.37;;;4.83;;
9370;SDS011;4725;48.384;8.984;2022-07-22T01:30:43;5.43;;;4.93;;
9370;SDS011;4725;48.384;8.984;2022-07-22T01:33:10;11.43;;;5.97;;
9370;SDS011;4725;48.384;8.984;2022-07-22T01:35:37;11.63;;;5.70;;
9370;SDS011;4725;48.384;8.984;2022-07-22T01:38:06;7.77;;;5.03;;
9370;SDS011;4725;48.384;8.984;2022-07-22T01:40:33;10.07;;;5.00;;
9370;SDS011;4725;48.384;8.984;2022-07-22T01:43:00;8.30;;;6.17;;
9370;SDS011;4725;48.384;8.984;2022-07-22T01:45:27;8.30;;;6.13;;
9370;SDS011;4725;48.384;8.984;2022-07-22T01:47:54;7.43;;;4.80;;
9370;SDS011;4725;48.384;8.984;2022-07-22T01:50:21;7.93;;;5.13;;
9370;SDS011;4725;48.384;8.984;2022-07-22T01:52:48;6.07;;;5.37;;
9370;SDS011;4725;48.384;8.984;2022-07-22T01:55:16;10.47;;;5.87;;
9370;SDS011;4725;48.384;8.984;2022-07-22T01:57:44;7.27;;;6.57;;
9370;SDS011;4725;48.384;8.984;2022-07-22T02:00:11;9.60;;;7.00;;
9370;SDS011;4725;48.384;8.984;2022-07-22T02:02:39;8.03;;;6.40;;
9370;SDS011;4725;48.384;8.984;2022-07-22T02:05:06;7.90;;;6.40;;
9370;SDS011;4725;48.384;8.984;2022-07-22T02:07:33;7.47;;;6.07;;
9370;SDS011;4725;48.384;8.984;2022-07-22T02:10:00;5.83;;;5.23;;
9370;SDS011;4725;48.384;8.984;2022-07-22T02:12:29;6.97;;;5.67;;
9370;SDS011;4725;48.384;8.984;2022-07-22T02:14:56;7.70;;;6.07;;
9370;SDS011;4725;48.384;8.984;2022-07-22T02:17:23;9.40;;;5.83;;
9370;SDS011;4725;48.384;8.984;2022-07-22T02:19:50;9.87;;;6.17;;
9370;SDS011;4725;48.384;8.984;2022-07-22T02:22:17;12.47;;;5.33;;
9370;SDS011;4725;48.384;8.984;2022-07-22T02:24:44;8.67;;;5.53;;
9370;SDS011;4725;48.384;8.984;2022-07-22T02:27:11;10.67;;;5.70;;
9370;SDS011;4725;48.384;8.984;2022-07-22T02:29:39;7.13;;;5.67;;
9370;SDS011;4725;48.384;8.984;2022-07-22T02:32:06;11.00;;;6.03;;
9370;SDS011;4725;48.384;8.984;2022-07-22T02:34:33;16.97;;;6.43;;
9370;SDS011;4725;48.384;8.984;2022-07-22T02:37:00;9.73;;;5.30;;
9370;SDS011;4725;48.384;8.984;2022-07-22T02:39:27;10.10;;;5.57;;
9370;SDS011;4725;48.384;8.984;2022-07-22T02:41:55;8.27;;;5.73;;
9370;SDS011;4725;48.384;8.984;2022-07-22T02:44:22;6.90;;;5.67;;
9370;SDS011;4725;48.384;8.984;2022-07-22T02:46:50;7.27;;;6.53;;
9370;SDS011;4725;48.384;8.984;2022-07-22T02:49:17;8.97;;;6.43;;
9370;SDS011;4725;48.384;8.984;2022-07-22T02:51:44;6.70;;;6.10;;
9370;SDS011;4725;48.384;8.984;2022-07-22T02:54:10;6.97;;;6.37;;
9370;SDS011;4725;48.384;8.984;2022-07-22T02:56:37;6.73;;;5.80;;
9370;SDS011;4725;48.384;8.984;2022-07-22T02:59:04;8.57;;;5.93;;
9370;SDS011;4725;48.384;8.984;2022-07-22T03:01:31;7.63;;;6.37;;
9370;SDS011;4725;48.384;8.984;2022-07-22T03:04:00;6.63;;;6.00;;
9370;SDS011;4725;48.384;8.984;2022-07-22T03:06:26;7.10;;;5.87;;
9370;SDS011;4725;48.384;8.984;2022-07-22T03:08:53;8.63;;;5.73;;
9370;SDS011;4725;48.384;8.984;2022-07-22T03:11:20;6.20;;;5.60;;
9370;SDS011;4725;48.384;8.984;2022-07-22T03:13:47;6.47;;;5.50;;
9370;SDS011;4725;48.384;8.984;2022-07-22T03:16:14;6.87;;;6.17;;
9370;SDS011;4725;48.384;8.984;2022-07-22T03:18:41;8.53;;;4.90;;
9370;SDS011;4725;48.384;8.984;2022-07-22T03:21:09;6.53;;;5.83;;
9370;SDS011;4725;48.384;8.984;2022-07-22T03:23:36;6.47;;;5.77;;
9370;SDS011;4725;48.384;8.984;2022-07-22T03:26:03;10.50;;;6.30;;
9370;SDS011;4725;48.384;8.984;2022-07-22T03:28:30;10.40;;;6.07;;
9370;SDS011;4725;48.384;8.984;2022-07-22T03:30:57;10.17;;;6.27;;
9370;SDS011;4725;48.384;8.984;2022-07-22T03:33:24;8.13;;;5.97;;
9370;SDS011;4725;48.384;8.984;2022-07-22T03:35:51;7.67;;;5.47;;
9370;SDS011;4725;48.384;8.984;2022-07-22T03:38:20;9.40;;;5.80;;
9370;SDS011;4725;48.384;8.984;2022-07-22T03:40:47;5.97;;;5.37;;
9370;SDS011;4725;48.384;8.984;2022-07-22T03:43:13;6.40;;;5.40;;
9370;SDS011;4725;48.384;8.984;2022-07-22T03:45:41;5.57;;;5.07;;
9370;SDS011;4725;48.384;8.984;2022-07-22T03:48:07;6.03;;;5.43;;
9370;SDS011;4725;48.384;8.984;2022-07-22T03:50:35;10.47;;;5.53;;
9370;SDS011;4725;48.384;8.984;2022-07-22T03:53:02;5.30;;;4.80;;
9370;SDS011;4725;48.384;8.984;2022-07-22T03:55:30;6.07;;;5.47;;
9370;SDS011;4725;48.384;8.984;2022-07-22T03:57:57;6.40;;;5.03;;
9370;SDS011;4725;48.384;8.984;2022-07-22T04:00:24;5.80;;;5.30;;
9370;SDS011;4725;48.384;8.984;2022-07-22T04:02:51;5.10;;;4.70;;
9370;SDS011;4725;48.384;8.984;2022-07-22T04:05:18;6.13;;;5.03;;
9370;SDS011;4725;48.384;8.984;2022-07-22T04:07:45;5.67;;;5.00;;
9370;SDS011;4725;48.384;8.984;2022-07-22T04:10:12;5.33;;;4.83;;
9370;SDS011;4725;48.384;8.984;2022-07-22T04:12:40;5.40;;;4.90;;
9370;SDS011;4725;48.384;8.984;2022-07-22T04:15:08;7.37;;;5.33;;
9370;SDS011;4725;48.384;8.984;2022-07-22T04:17:36;5.90;;;5.30;;
9370;SDS011;4725;48.384;8.984;2022-07-22T04:20:03;7.60;;;5.70;;
9370;SDS011;4725;48.384;8.984;2022-07-22T04:22:31;7.20;;;4.90;;
9370;SDS011;4725;48.384;8.984;2022-07-22T04:24:58;7.97;;;5.37;;
9370;SDS011;4725;48.384;8.984;2022-07-22T04:27:25;7.13;;;5.13;;
9370;SDS011;4725;48.384;8.984;2022-07-22T04:29:53;5.50;;;5.00;;
9370;SDS011;4725;48.384;8.984;2022-07-22T04:32:21;8.33;;;5.37;;
9370;SDS011;4725;48.384;8.984;2022-07-22T04:34:47;6.30;;;5.10;;
9370;SDS011;4725;48.384;8.984;2022-07-22T04:37:14;10.30;;;5.80;;
9370;SDS011;4725;48.384;8.984;2022-07-22T04:39:41;5.97;;;5.37;;
9370;SDS011;4725;48.384;8.984;2022-07-22T04:42:08;6.27;;;5.07;;
9370;SDS011;4725;48.384;8.984;2022-07-22T04:44:35;6.77;;;6.17;;
9370;SDS011;4725;48.384;8.984;2022-07-22T04:47:04;6.93;;;5.33;;
9370;SDS011;4725;48.384;8.984;2022-07-22T04:49:31;7.87;;;6.20;;
9370;SDS011;4725;48.384;8.984;2022-07-22T04:51:58;6.00;;;5.20;;
9370;SDS011;4725;48.384;8.984;2022-07-22T04:54:25;6.33;;;5.73;;
9370;SDS011;4725;48.384;8.984;2022-07-22T04:56:52;5.80;;;5.30;;
9370;SDS011;4725;48.384;8.984;2022-07-22T04:59:19;7.57;;;5.03;;
9370;SDS011;4725;48.384;8.984;2022-07-22T05:01:46;6.70;;;5.20;;
9370;SDS011;4725;48.384;8.984;2022-07-22T05:04:14;5.90;;;4.87;;
9370;SDS011;4725;48.384;8.984;2022-07-22T05:06:41;6.63;;;5.30;;
9370;SDS011;4725;48.384;8.984;2022-07-22T05:09:08;7.30;;;4.85;;
9370;SDS011;4725;48.384;8.984;2022-07-22T05:11:35;6.17;;;5.57;;
9370;SDS011;4725;48.384;8.984;2022-07-22T05:14:02;6.25;;;4.90;;
9370;SDS011;4725;48.384;8.984;2022-07-22T05:16:29;7.50;;;6.05;;
9370;SDS011;4725;48.384;8.984;2022-07-22T05:18:56;7.68;;;5.03;;
9370;SDS011;4725;48.384;8.984;2022-07-22T05:21:24;8.32;;;5.45;;
9370;SDS011;4725;48.384;8.984;2022-07-22T05:23:51;7.07;;;6.43;;
9370;SDS011;4725;48.384;8.984;2022-07-22T05:26:18;6.65;;;5.85;;
9370;SDS011;4725;48.384;8.984;2022-07-22T05:28:45;6.22;;;5.63;;
9370;SDS011;4725;48.384;8.984;2022-07-22T05:31:12;6.40;;;5.80;;
9370;SDS011;4725;48.384;8.984;2022-07-22T05:33:39;7.82;;;5.90;;
9370;SDS011;4725;48.384;8.984;2022-07-22T05:36:07;7.10;;;5.90;;
9370;SDS011;4725;48.384;8.984;2022-07-22T05:38:37;7.30;;;6.50;;
9370;SDS011;4725;48.384;8.984;2022-07-22T05:41:04;7.60;;;6.47;;
9370;SDS011;4725;48.384;8.984;2022-07-22T05:43:31;9.57;;;6.22;;
9370;SDS011;4725;48.384;8.984;2022-07-22T05:45:58;6.80;;;6.10;;
9370;SDS011;4725;48.384;8.984;2022-07-22T05:48:25;9.60;;;8.65;;
9370;SDS011;4725;48.384;8.984;2022-07-22T05:50:52;12.65;;;9.10;;
9370;SDS011;4725;48.384;8.984;2022-07-22T05:53:19;10.02;;;8.18;;
9370;SDS011;4725;48.384;8.984;2022-07-22T05:55:48;8.80;;;7.93;;
9370;SDS011;4725;48.384;8.984;2022-07-22T05:58:15;8.18;;;7.43;;
9370;SDS011;4725;48.384;8.984;2022-07-22T06:00:42;8.98;;;7.10;;
9370;SDS011;4725;48.384;8.984;2022-07-22T06:03:09;7.28;;;6.57;;
9370;SDS011;4725;48.384;8.984;2022-07-22T06:05:36;7.65;;;6.95;;
9370;SDS011;4725;48.384;8.984;2022-07-22T06:08:03;8.07;;;7.28;;
9370;SDS011;4725;48.384;8.984;2022-07-22T06:10:30;9.02;;;8.13;;
9370;SDS011;4725;48.384;8.984;2022-07-22T06:12:59;7.30;;;6.60;;
9370;SDS011;4725;48.384;8.984;2022-07-22T06:15:26;7.22;;;5.80;;
9370;SDS011;4725;48.384;8.984;2022-07-22T06:17:53;8.73;;;7.43;;
9370;SDS011;4725;48.384;8.984;2022-07-22T06:20:20;7.25;;;6.38;;
9370;SDS011;4725;48.384;8.984;2022-07-22T06:22:47;7.68;;;6.97;;
9370;SDS011;4725;48.384;8.984;2022-07-22T06:25:14;7.30;;;6.60;;
9370;SDS011;4725;48.384;8.984;2022-07-22T06:27:41;9.45;;;7.15;;
9370;SDS011;4725;48.384;8.984;2022-07-22T06:30:10;6.90;;;6.28;;
9370;SDS011;4725;48.384;8.984;2022-07-22T06:32:37;6.68;;;5.97;;
9370;SDS011;4725;48.384;8.984;2022-07-22T06:35:05;8.02;;;7.05;;
9370;SDS011;4725;48.384;8.984;2022-07-22T06:37:32;7.10;;;6.38;;
9370;SDS011;4725;48.384;8.984;2022-07-22T06:39:59;7.65;;;5.97;;
9370;SDS011;4725;48.384;8.984;2022-07-22T06:42:27;6.97;;;6.28;;
9370;SDS011;4725;48.384;8.984;2022-07-22T06:44:54;7.60;;;7.00;;
9370;SDS011;4725;48.384;8.984;2022-07-22T06:47:22;8.50;;;7.70;;
9370;SDS011;4725;48.384;8.984;2022-07-22T06:49:49;11.73;;;7.45;;
9370;SDS011;4725;48.384;8.984;2022-07-22T06:52:16;8.07;;;7.20;;
9370;SDS011;4725;48.384;8.984;2022-07-22T06:54:43;8.18;;;7.22;;
9370;SDS011;4725;48.384;8.984;2022-07-22T06:57:10;7.00;;;6.35;;
9370;SDS011;4725;48.384;8.984;2022-07-22T06:59:37;10.55;;;6.45;;
9370;SDS011;4725;48.384;8.984;2022-07-22T07:02:04;7.72;;;6.95;;
9370;SDS011;4725;48.384;8.984;2022-07-22T07:04:33;7.25;;;6.63;;
9370;SDS011;4725;48.384;8.984;2022-07-22T07:07:00;12.65;;;7.47;;
9370;SDS011;4725;48.384;8.984;2022-07-22T07:09:27;8.02;;;7.10;;
9370;SDS011;4725;48.384;8.984;2022-07-22T07:11:54;7.78;;;6.45;;
9370;SDS011;4725;48.384;8.984;2022-07-22T07:14:20;8.55;;;7.15;;
9370;SDS011;4725;48.384;8.984;2022-07-22T07:16:47;11.48;;;7.32;;
9370;SDS011;4725;48.384;8.984;2022-07-22T07:19:14;7.93;;;7.22;;
9370;SDS011;4725;48.384;8.984;2022-07-22T07:21:43;7.88;;;7.18;;
9370;SDS011;4725;48.384;8.984;2022-07-22T07:24:09;10.13;;;7.20;;
9370;SDS011;4725;48.384;8.984;2022-07-22T07:26:36;8.82;;;7.28;;
9370;SDS011;4725;48.384;8.984;2022-07-22T07:29:04;7.88;;;7.18;;
9370;SDS011;4725;48.384;8.984;2022-07-22T07:31:31;10.80;;;7.47;;
9370;SDS011;4725;48.384;8.984;2022-07-22T07:33:58;8.32;;;7.40;;
9370;SDS011;4725;48.384;8.984;2022-07-22T07:36:25;9.30;;;8.18;;
9370;SDS011;4725;48.384;8.984;2022-07-22T07:38:53;8.85;;;6.72;;
9370;SDS011;4725;48.384;8.984;2022-07-22T07:41:20;8.57;;;7.25;;
9370;SDS011;4725;48.384;8.984;2022-07-22T07:43:47;10.10;;;6.75;;
9370;SDS011;4725;48.384;8.984;2022-07-22T07:46:14;7.90;;;7.03;;
9370;SDS011;4725;48.384;8.984;2022-07-22T07:48:41;11.55;;;7.10;;
9370;SDS011;4725;48.384;8.984;2022-07-22T07:51:08;9.65;;;7.25;;
9370;SDS011;4725;48.384;8.984;2022-07-22T07:53:35;7.95;;;7.15;;
9370;SDS011;4725;48.384;8.984;2022-07-22T07:56:03;7.00;;;6.35;;
9370;SDS011;4725;48.384;8.984;2022-07-22T07:58:30;7.72;;;6.90;;
9370;SDS011;4725;48.384;8.984;2022-07-22T08:00:57;7.80;;;7.00;;
9370;SDS011;4725;48.384;8.984;2022-07-22T08:03:24;9.00;;;6.88;;
9370;SDS011;4725;48.384;8.984;2022-07-22T08:05:51;7.47;;;6.78;;
9370;SDS011;4725;48.384;8.984;2022-07-22T08:08:18;9.43;;;6.82;;
9370;SDS011;4725;48.384;8.984;2022-07-22T08:10:45;8.60;;;6.85;;
9370;SDS011;4725;48.384;8.984;2022-07-22T08:13:13;9.25;;;6.78;;
9370;SDS011;4725;48.384;8.984;2022-07-22T08:15:40;8.27;;;6.80;;
9370;SDS011;4725;48.384;8.984;2022-07-22T08:18:07;7.20;;;6.43;;
9370;SDS011;4725;48.384;8.984;2022-07-22T08:20:34;9.23;;;6.68;;
9370;SDS011;4725;48.384;8.984;2022-07-22T08:23:01;9.15;;;7.05;;
9370;SDS011;4725;48.384;8.984;2022-07-22T08:25:29;8.20;;;7.38;;
9370;SDS011;4725;48.384;8.984;2022-07-22T08:27:56;9.75;;;6.70;;
9370;SDS011;4725;48.384;8.984;2022-07-22T08:30:24;9.50;;;7.20;;
9370;SDS011;4725;48.384;8.984;2022-07-22T08:32:53;7.50;;;6.80;;
9370;SDS011;4725;48.384;8.984;2022-07-22T08:35:20;7.38;;;6.68;;
9370;SDS011;4725;48.384;8.984;2022-07-22T08:37:47;6.55;;;5.85;;
9370;SDS011;4725;48.384;8.984;2022-07-22T08:40:15;11.20;;;7.30;;
9370;SDS011;4725;48.384;8.984;2022-07-22T08:42:44;7.85;;;7.13;;
9370;SDS011;4725;48.384;8.984;2022-07-22T08:45:11;10.57;;;6.75;;
9370;SDS011;4725;48.384;8.984;2022-07-22T08:47:40;8.80;;;7.97;;
9370;SDS011;4725;48.384;8.984;2022-07-22T08:50:10;8.63;;;6.85;;
9370;SDS011;4725;48.384;8.984;2022-07-22T08:52:37;8.93;;;6.75;;
9370;SDS011;4725;48.384;8.984;2022-07-22T08:55:05;8.32;;;7.53;;
9370;SDS011;4725;48.384;8.984;2022-07-22T08:57:33;8.23;;;7.28;;
9370;SDS011;4725;48.384;8.984;2022-07-22T09:00:03;9.45;;;7.00;;
9370;SDS011;4725;48.384;8.984;2022-07-22T09:02:36;8.30;;;7.32;;
9370;SDS011;4725;48.384;8.984;2022-07-22T09:05:06;7.40;;;6.70;;
9370;SDS011;4725;48.384;8.984;2022-07-22T09:07:35;9.93;;;6.72;;
9370;SDS011;4725;48.384;8.984;2022-07-22T09:10:05;9.60;;;6.60;;
9370;SDS011;4725;48.384;8.984;2022-07-22T09:12:33;7.35;;;6.60;;
9370;SDS011;4725;48.384;8.984;2022-07-22T09:15:00;9.27;;;7.95;;
9370;SDS011;4725;48.384;8.984;2022-07-22T09:17:30;9.65;;;7.20;;
9370;SDS011;4725;48.384;8.984;2022-07-22T09:20:01;7.95;;;6.85;;
9370;SDS011;4725;48.384;8.984;2022-07-22T09:22:35;7.00;;;6.30;;
9370;SDS011;4725;48.384;8.984;2022-07-22T09:25:17;7.32;;;6.60;;
9370;SDS011;4725;48.384;8.984;2022-07-22T09:27:45;7.40;;;6.70;;
9370;SDS011;4725;48.384;8.984;2022-07-22T09:30:13;10.68;;;7.05;;
9370;SDS011;4725;48.384;8.984;2022-07-22T09:32:42;7.18;;;6.55;;
9370;SDS011;4725;48.384;8.984;2022-07-22T09:35:10;6.93;;;6.22;;
9370;SDS011;4725;48.384;8.984;2022-07-22T09:37:45;7.05;;;6.45;;
9370;SDS011;4725;48.384;8.984;2022-07-22T09:40:18;11.45;;;7.00;;
9370;SDS011;4725;48.384;8.984;2022-07-22T09:42:48;11.73;;;7.70;;
9370;SDS011;4725;48.384;8.984;2022-07-22T09:45:16;7.72;;;7.03;;
9370;SDS011;4725;48.384;8.984;2022-07-22T09:47:44;8.05;;;6.93;;
9370;SDS011;4725;48.384;8.984;2022-07-22T09:50:19;6.55;;;5.95;;
9370;SDS011;4725;48.384;8.984;2022-07-22T09:52:49;6.80;;;6.07;;
9370;SDS011;4725;48.384;8.984;2022-07-22T09:55:17;9.45;;;6.15;;
9370;SDS011;4725;48.384;8.984;2022-07-22T09:57:46;7.68;;;6.05;;
9370;SDS011;4725;48.384;8.984;2022-07-22T10:00:15;6.18;;;5.30;;
9370;SDS011;4725;48.384;8.984;2022-07-22T10:02:45;6.63;;;5.60;;
9370;SDS011;4725;48.384;8.984;2022-07-22T10:05:14;6.88;;;6.18;;
9370;SDS011;4725;48.384;8.984;2022-07-22T10:07:43;8.95;;;5.25;;
9370;SDS011;4725;48.384;8.984;2022-07-22T10:10:13;6.47;;;5.90;;
9370;SDS011;4725;48.384;8.984;2022-07-22T10:12:42;6.28;;;5.60;;
9370;SDS011;4725;48.384;8.984;2022-07-22T10:15:10;10.90;;;6.25;;
9370;SDS011;4725;48.384;8.984;2022-07-22T10:17:39;6.78;;;5.28;;
9370;SDS011;4725;48.384;8.984;2022-07-22T10:20:08;5.85;;;5.03;;
9370;SDS011;4725;48.384;8.984;2022-07-22T10:22:46;6.93;;;4.80;;
9370;SDS011;4725;48.384;8.984;2022-07-22T10:25:17;6.13;;;5.53;;
9370;SDS011;4725;48.384;8.984;2022-07-22T10:27:45;5.65;;;5.10;;
9370;SDS011;4725;48.384;8.984;2022-07-22T10:30:14;6.28;;;5.10;;
9370;SDS011;4725;48.384;8.984;2022-07-22T10:32:43;6.30;;;5.03;;
9370;SDS011;4725;48.384;8.984;2022-07-22T10:35:20;6.72;;;5.50;;
9370;SDS011;4725;48.384;8.984;2022-07-22T10:37:49;5.93;;;5.20;;
9370;SDS011;4725;48.384;8.984;2022-07-22T10:40:20;5.82;;;5.22;;
9370;SDS011;4725;48.384;8.984;2022-07-22T10:45:47;7.38;;;4.97;;
9370;SDS011;4725;48.384;8.984;2022-07-22T10:48:17;5.65;;;5.15;;
9370;SDS011;4725;48.384;8.984;2022-07-22T10:51:04;5.18;;;4.47;;
9370;SDS011;4725;48.384;8.984;2022-07-22T10:53:42;5.03;;;4.47;;
9370;SDS011;4725;48.384;8.984;2022-07-22T10:56:20;6.07;;;4.78;;
9370;SDS011;4725;48.384;8.984;2022-07-22T10:58:54;4.68;;;4.28;;
9370;SDS011;4725;48.384;8.984;2022-07-22T11:01:25;6.22;;;5.45;;
9370;SDS011;4725;48.384;8.984;2022-07-22T11:03:55;4.90;;;4.00;;
9370;SDS011;4725;48.384;8.984;2022-07-22T11:06:32;4.75;;;4.13;;
9370;SDS011;4725;48.384;8.984;2022-07-22T11:09:00;5.57;;;4.38;;
9370;SDS011;4725;48.384;8.984;2022-07-22T11:11:34;5.53;;;4.60;;
9370;SDS011;4725;48.384;8.984;2022-07-22T11:14:13;5.88;;;4.57;;
9370;SDS011;4725;48.384;8.984;2022-07-22T11:16:41;4.50;;;4.18;;
9370;SDS011;4725;48.384;8.984;2022-07-22T11:19:09;4.40;;;4.00;;
9370;SDS011;4725;48.384;8.984;2022-07-22T11:21:36;5.45;;;4.35;;
9370;SDS011;4725;48.384;8.984;2022-07-22T11:24:04;5.10;;;4.70;;
9370;SDS011;4725;48.384;8.984;2022-07-22T11:26:35;6.28;;;5.50;;
9370;SDS011;4725;48.384;8.984;2022-07-22T11:29:06;5.10;;;4.60;;
9370;SDS011;4725;48.384;8.984;2022-07-22T11:31:33;4.13;;;3.70;;
9370;SDS011;4725;48.384;8.984;2022-07-22T11:34:04;4.00;;;3.70;;
9370;SDS011;4725;48.384;8.984;2022-07-22T11:36:33;5.68;;;4.00;;
9370;SDS011;4725;48.384;8.984;2022-07-22T11:39:01;4.93;;;4.05;;
9370;SDS011;4725;48.384;8.984;2022-07-22T11:41:29;5.20;;;4.70;;
9370;SDS011;4725;48.384;8.984;2022-07-22T11:43:58;7.40;;;4.28;;
9370;SDS011;4725;48.384;8.984;2022-07-22T11:46:25;4.72;;;4.13;;
9370;SDS011;4725;48.384;8.984;2022-07-22T11:48:53;6.13;;;4.75;;
9370;SDS011;4725;48.384;8.984;2022-07-22T11:51:27;4.55;;;4.13;;
9370;SDS011;4725;48.384;8.984;2022-07-22T11:53:55;5.18;;;4.68;;
9370;SDS011;4725;48.384;8.984;2022-07-22T11:56:23;4.43;;;4.03;;
9370;SDS011;4725;48.384;8.984;2022-07-22T11:58:50;7.90;;;4.30;;
9370;SDS011;4725;48.384;8.984;2022-07-22T12:01:21;4.50;;;4.10;;
9370;SDS011;4725;48.384;8.984;2022-07-22T12:03:50;4.45;;;4.15;;
9370;SDS011;4725;48.384;8.984;2022-07-22T12:06:19;4.20;;;3.80;;
9370;SDS011;4725;48.384;8.984;2022-07-22T12:08:48;6.53;;;4.43;;
9370;SDS011;4725;48.384;8.984;2022-07-22T12:11:23;4.88;;;3.90;;
9370;SDS011;4725;48.384;8.984;2022-07-22T12:13:51;5.38;;;3.72;;
9370;SDS011;4725;48.384;8.984;2022-07-22T12:16:21;4.13;;;3.75;;
9370;SDS011;4725;48.384;8.984;2022-07-22T12:18:50;6.05;;;4.35;;
9370;SDS011;4725;48.384;8.984;2022-07-22T12:21:22;4.80;;;4.40;;
9370;SDS011;4725;48.384;8.984;2022-07-22T12:23:54;4.22;;;3.70;;
9370;SDS011;4725;48.384;8.984;2022-07-22T12:26:41;4.32;;;3.90;;
9370;SDS011;4725;48.384;8.984;2022-07-22T12:29:17;5.25;;;3.80;;
9370;SDS011;4725;48.384;8.984;2022-07-22T12:31:48;3.92;;;3.63;;
9370;SDS011;4725;48.384;8.984;2022-07-22T12:34:16;4.45;;;4.00;;
9370;SDS011;4725;48.384;8.984;2022-07-22T12:36:54;5.32;;;4.00;;
9370;SDS011;4725;48.384;8.984;2022-07-22T12:39:21;6.10;;;4.15;;
9370;SDS011;4725;48.384;8.984;2022-07-22T12:41:49;4.07;;;3.67;;
9370;SDS011;4725;48.384;8.984;2022-07-22T12:44:21;5.15;;;3.90;;
9370;SDS011;4725;48.384;8.984;2022-07-22T12:46:51;3.90;;;3.60;;
9370;SDS011;4725;48.384;8.984;2022-07-22T12:49:20;4.55;;;3.72;;
9370;SDS011;4725;48.384;8.984;2022-07-22T12:52:07;4.65;;;3.70;;
9370;SDS011;4725;48.384;8.984;2022-07-22T12:54:36;3.85;;;3.55;;
9370;SDS011;4725;48.384;8.984;2022-07-22T12:57:04;4.15;;;3.75;;
9370;SDS011;4725;48.384;8.984;2022-07-22T12:59:32;3.60;;;3.30;;
9370;SDS011;4725;48.384;8.984;2022-07-22T13:02:01;4.47;;;3.40;;
9370;SDS011;4725;48.384;8.984;2022-07-22T13:04:27;3.60;;;3.30;;
9370;SDS011;4725;48.384;8.984;2022-07-22T13:06:55;3.80;;;3.58;;
9370;SDS011;4725;48.384;8.984;2022-07-22T13:09:22;4.88;;;3.95;;
9370;SDS011;4725;48.384;8.984;2022-07-22T13:11:49;4.35;;;3.95;;
9370;SDS011;4725;48.384;8.984;2022-07-22T13:14:16;6.72;;;3.47;;
9370;SDS011;4725;48.384;8.984;2022-07-22T13:16:43;4.68;;;4.30;;
9370;SDS011;4725;48.384;8.984;2022-07-22T13:19:11;5.80;;;4.00;;
9370;SDS011;4725;48.384;8.984;2022-07-22T13:21:38;3.72;;;3.42;;
9370;SDS011;4725;48.384;8.984;2022-07-22T13:24:06;4.43;;;3.58;;
9370;SDS011;4725;48.384;8.984;2022-07-22T13:26:33;3.80;;;3.50;;
9370;SDS011;4725;48.384;8.984;2022-07-22T13:29:00;4.10;;;3.75;;
9370;SDS011;4725;48.384;8.984;2022-07-22T13:31:27;11.63;;;4.18;;
9370;SDS011;4725;48.384;8.984;2022-07-22T13:33:54;3.85;;;3.50;;
9370;SDS011;4725;48.384;8.984;2022-07-22T13:36:22;4.90;;;4.40;;
9370;SDS011;4725;48.384;8.984;2022-07-22T13:38:49;3.95;;;3.65;;
9370;SDS011;4725;48.384;8.984;2022-07-22T13:41:17;4.75;;;3.88;;
9370;SDS011;4725;48.384;8.984;2022-07-22T13:43:44;4.28;;;3.88;;
9370;SDS011;4725;48.384;8.984;2022-07-22T13:46:14;3.88;;;3.58;;
9370;SDS011;4725;48.384;8.984;2022-07-22T13:48:40;5.20;;;3.58;;
9370;SDS011;4725;48.384;8.984;2022-07-22T13:51:08;3.45;;;3.17;;
9370;SDS011;4725;48.384;8.984;2022-07-22T13:53:36;3.65;;;3.35;;
9370;SDS011;4725;48.384;8.984;2022-07-22T13:56:03;5.15;;;3.90;;
9370;SDS011;4725;48.384;8.984;2022-07-22T13:58:31;3.30;;;3.03;;
9370;SDS011;4725;48.384;8.984;2022-07-22T14:00:59;3.72;;;3.42;;
9370;SDS011;4725;48.384;8.984;2022-07-22T14:03:26;4.38;;;3.50;;
9370;SDS011;4725;48.384;8.984;2022-07-22T14:05:53;5.22;;;3.92;;
9370;SDS011;4725;48.384;8.984;2022-07-22T14:08:20;3.75;;;3.35;;
9370;SDS011;4725;48.384;8.984;2022-07-22T14:10:49;4.10;;;3.70;;
9370;SDS011;4725;48.384;8.984;2022-07-22T14:13:16;3.72;;;3.42;;
9370;SDS011;4725;48.384;8.984;2022-07-22T14:15:43;4.00;;;3.55;;
9370;SDS011;4725;48.384;8.984;2022-07-22T14:18:10;4.38;;;3.33;;
9370;SDS011;4725;48.384;8.984;2022-07-22T14:20:37;3.50;;;3.22;;
9370;SDS011;4725;48.384;8.984;2022-07-22T14:23:05;4.55;;;3.47;;
9370;SDS011;4725;48.384;8.984;2022-07-22T14:25:34;7.57;;;4.00;;
9370;SDS011;4725;48.384;8.984;2022-07-22T14:28:03;3.53;;;3.22;;
9370;SDS011;4725;48.384;8.984;2022-07-22T14:30:32;4.72;;;3.85;;
9370;SDS011;4725;48.384;8.984;2022-07-22T14:32:59;4.30;;;3.95;;
9370;SDS011;4725;48.384;8.984;2022-07-22T14:35:26;4.65;;;3.53;;
9370;SDS011;4725;48.384;8.984;2022-07-22T14:37:53;4.97;;;3.63;;
9370;SDS011;4725;48.384;8.984;2022-07-22T14:40:20;3.90;;;3.60;;
9370;SDS011;4725;48.384;8.984;2022-07-22T14:42:47;4.47;;;4.07;;
9370;SDS011;4725;48.384;8.984;2022-07-22T14:45:16;5.53;;;3.97;;
9370;SDS011;4725;48.384;8.984;2022-07-22T14:47:42;7.93;;;4.53;;
9370;SDS011;4725;48.384;8.984;2022-07-22T14:50:09;6.50;;;3.67;;
9370;SDS011;4725;48.384;8.984;2022-07-22T14:52:36;3.67;;;3.38;;
9370;SDS011;4725;48.384;8.984;2022-07-22T14:55:04;6.35;;;3.95;;
9370;SDS011;4725;48.384;8.984;2022-07-22T14:57:31;4.32;;;3.80;;
9370;SDS011;4725;48.384;8.984;2022-07-22T14:59:58;4.05;;;3.50;;
9370;SDS011;4725;48.384;8.984;2022-07-22T15:02:26;4.13;;;3.70;;
9370;SDS011;4725;48.384;8.984;2022-07-22T15:04:53;5.25;;;3.50;;
9370;SDS011;4725;48.384;8.984;2022-07-22T15:07:20;5.68;;;3.28;;
9370;SDS011;4725;48.384;8.984;2022-07-22T15:09:47;3.83;;;3.53;;
9370;SDS011;4725;48.384;8.984;2022-07-22T15:12:14;4.60;;;3.35;;
9370;SDS011;4725;48.384;8.984;2022-07-22T15:14:41;3.78;;;3.47;;
9370;SDS011;4725;48.384;8.984;2022-07-22T15:17:08;3.63;;;3.33;;
9370;SDS011;4725;48.384;8.984;2022-07-22T15:19:36;6.22;;;3.30;;
9370;SDS011;4725;48.384;8.984;2022-07-22T15:22:03;5.03;;;3.78;;
9370;SDS011;4725;48.384;8.984;2022-07-22T15:24:30;3.53;;;3.33;;